createdAt,value
2022-09-16T00:02:01.891Z,19.47
2022-09-16T00:04:30.612Z,19.49
2022-09-16T00:06:59.486Z,19.53
2022-09-16T00:09:30.655Z,19.54
2022-09-16T00:12:10.538Z,19.59
2022-09-16T00:14:40.821Z,19.58
2022-09-16T00:17:09.951Z,19.53
2022-09-16T00:19:38.732Z,19.51
2022-09-16T00:22:16.586Z,19.51
2022-09-16T00:24:56.217Z,19.51
2022-09-16T00:27:25.286Z,19.53
2022-09-16T00:29:56.464Z,19.52
2022-09-16T00:32:28.714Z,19.57
2022-09-16T00:34:56.255Z,19.61
2022-09-16T00:37:26.107Z,19.54
2022-09-16T00:39:53.623Z,19.53
2022-09-16T00:42:27.592Z,19.45
2022-09-16T00:45:07.011Z,19.43
2022-09-16T00:47:48.393Z,19.45
2022-09-16T00:50:39.128Z,19.40
2022-09-16T00:53:13.255Z,19.36
2022-09-16T00:55:44.060Z,19.36
2022-09-16T00:58:26.226Z,19.38
2022-09-16T01:00:54.754Z,19.38
2022-09-16T01:03:29.462Z,19.37
2022-09-16T01:06:01.352Z,19.34
2022-09-16T01:08:29.642Z,19.31
2022-09-16T01:10:59.861Z,19.31
2022-09-16T01:13:34.119Z,19.33
2022-09-16T01:16:38.816Z,19.38
2022-09-16T01:19:25.932Z,19.33
2022-09-16T01:22:29.990Z,19.24
2022-09-16T01:25:29.498Z,19.35
2022-09-16T01:28:56.051Z,19.35
2022-09-16T01:32:08.382Z,19.28
2022-09-16T01:34:57.929Z,19.28
2022-09-16T01:37:26.475Z,19.32
2022-09-16T01:40:13.678Z,19.28
2022-09-16T01:43:15.695Z,19.25
2022-09-16T01:45:58.055Z,19.24
2022-09-16T01:48:53.003Z,19.22
2022-09-16T01:51:52.807Z,19.21
2022-09-16T01:55:10.197Z,19.22
2022-09-16T01:58:18.188Z,19.18
2022-09-16T02:00:50.017Z,19.21
2022-09-16T02:03:36.766Z,19.19
2022-09-16T02:06:25.687Z,19.20
2022-09-16T02:09:21.754Z,19.00
2022-09-16T02:11:58.237Z,18.94
2022-09-16T02:14:33.734Z,18.93
2022-09-16T02:17:09.171Z,18.93
2022-09-16T02:19:52.991Z,18.92
2022-09-16T02:22:32.697Z,18.88
2022-09-16T02:25:07.392Z,18.86
2022-09-16T02:27:51.753Z,18.89
2022-09-16T02:30:23.156Z,18.84
2022-09-16T02:32:59.987Z,18.79
2022-09-16T02:35:39.759Z,18.70
2022-09-16T02:38:14.909Z,18.58
2022-09-16T02:41:03.942Z,18.56
2022-09-16T02:43:42.943Z,18.44
2022-09-16T02:46:30.043Z,18.39
2022-09-16T02:49:20.140Z,18.50
2022-09-16T02:52:09.067Z,18.44
2022-09-16T02:55:15.787Z,18.46
2022-09-16T02:57:44.381Z,18.40
2022-09-16T03:00:12.424Z,18.44
2022-09-16T03:02:43.185Z,18.46
2022-09-16T03:05:17.235Z,18.52
2022-09-16T03:07:50.680Z,18.47
2022-09-16T03:10:23.338Z,18.49
2022-09-16T03:13:24.886Z,18.51
2022-09-16T03:16:18.610Z,18.49
2022-09-16T03:19:42.102Z,18.43
2022-09-16T03:22:32.088Z,18.42
2022-09-16T03:25:22.750Z,18.39
2022-09-16T03:27:58.676Z,18.43
2022-09-16T03:30:33.688Z,18.44
2022-09-16T03:33:10.873Z,18.46
2022-09-16T03:35:56.442Z,18.44
2022-09-16T03:38:28.703Z,18.45
2022-09-16T03:40:59.281Z,18.44
2022-09-16T03:43:28.150Z,18.44
2022-09-16T03:45:55.761Z,18.42
2022-09-16T03:48:26.474Z,18.37
2022-09-16T03:50:54.767Z,18.32
2022-09-16T03:53:24.224Z,18.35
2022-09-16T03:55:55.833Z,18.32
2022-09-16T03:58:29.159Z,18.39
2022-09-16T04:01:00.768Z,18.44
2022-09-16T04:03:33.437Z,18.43
2022-09-16T04:06:06.791Z,18.46
2022-09-16T04:08:34.569Z,18.47
2022-09-16T04:11:19.117Z,18.49
2022-09-16T04:13:51.792Z,18.55
2022-09-16T04:16:21.624Z,18.50
2022-09-16T04:18:51.629Z,18.42
2022-09-16T04:21:21.769Z,18.48
2022-09-16T04:23:51.983Z,18.51
2022-09-16T04:26:21.626Z,18.59
2022-09-16T04:28:54.127Z,18.56
2022-09-16T04:31:22.945Z,18.52
2022-09-16T04:33:53.019Z,18.59
2022-09-16T04:36:21.128Z,18.58
2022-09-16T04:38:52.720Z,18.52
2022-09-16T04:41:30.427Z,18.56
2022-09-16T04:44:00.536Z,18.66
2022-09-16T04:46:34.044Z,18.68
2022-09-16T04:49:09.587Z,18.72
2022-09-16T04:51:40.434Z,18.72
2022-09-16T04:54:12.359Z,18.71
2022-09-16T04:56:43.340Z,18.75
2022-09-16T04:59:14.887Z,18.85
2022-09-16T05:01:49.395Z,18.75
2022-09-16T05:04:21.894Z,18.82
2022-09-16T05:06:51.672Z,18.76
2022-09-16T05:09:26.511Z,18.84
2022-09-16T05:11:54.811Z,18.90
2022-09-16T05:14:32.039Z,18.90
2022-09-16T05:17:01.160Z,19.02
2022-09-16T05:19:30.868Z,19.03
2022-09-16T05:22:04.150Z,19.14
2022-09-16T05:24:44.897Z,19.25
2022-09-16T05:27:15.271Z,19.23
2022-09-16T05:30:00.264Z,19.29
2022-09-16T05:32:27.760Z,19.39
2022-09-16T05:34:55.948Z,19.31
2022-09-16T05:37:24.865Z,19.46
2022-09-16T05:39:53.445Z,19.39
2022-09-16T05:42:34.368Z,19.43
2022-09-16T05:45:05.143Z,19.52
2022-09-16T05:47:35.801Z,19.51
2022-09-16T05:50:05.730Z,19.63
2022-09-16T05:52:35.276Z,19.64
2022-09-16T05:55:04.469Z,19.77
2022-09-16T05:57:32.350Z,19.83
2022-09-16T06:00:10.237Z,19.93
2022-09-16T06:02:40.397Z,20.04
2022-09-16T06:05:09.803Z,20.05
2022-09-16T06:07:41.461Z,20.00
2022-09-16T06:10:09.942Z,20.11
2022-09-16T06:12:39.862Z,20.13
2022-09-16T06:15:11.339Z,20.27
2022-09-16T06:17:42.781Z,20.39
2022-09-16T06:20:14.828Z,20.55
2022-09-16T06:22:44.065Z,20.64
2022-09-16T06:25:13.006Z,20.73
2022-09-16T06:27:47.839Z,20.79
2022-09-16T06:30:15.360Z,20.83
2022-09-16T06:32:46.624Z,20.99
2022-09-16T06:35:16.849Z,21.10
2022-09-16T06:37:47.872Z,21.06
2022-09-16T06:40:26.367Z,21.15
2022-09-16T06:43:00.067Z,21.29
2022-09-16T06:45:29.595Z,21.31
2022-09-16T06:48:03.981Z,21.44
2022-09-16T06:50:32.749Z,21.52
2022-09-16T06:53:03.359Z,21.61
2022-09-16T06:55:39.615Z,21.74
2022-09-16T06:58:09.032Z,21.85
2022-09-16T07:00:42.188Z,21.83
2022-09-16T07:03:10.842Z,21.96
2022-09-16T07:05:39.475Z,22.02
2022-09-16T07:08:07.670Z,22.06
2022-09-16T07:10:41.390Z,22.13
2022-09-16T07:13:11.869Z,22.25
2022-09-16T07:16:02.350Z,22.27
2022-09-16T07:18:30.783Z,22.20
2022-09-16T07:21:14.225Z,22.25
2022-09-16T07:23:43.364Z,22.15
2022-09-16T07:26:23.207Z,22.10
2022-09-16T07:28:51.620Z,22.26
2022-09-16T07:31:24.710Z,22.29
2022-09-16T07:34:03.659Z,22.42
2022-09-16T07:36:38.044Z,22.35
2022-09-16T07:39:07.325Z,22.50
2022-09-16T07:41:40.396Z,22.69
2022-09-16T07:44:31.367Z,22.73
2022-09-16T07:47:02.594Z,22.77
2022-09-16T07:49:31.702Z,22.98
2022-09-16T07:52:02.122Z,23.13
2022-09-16T07:54:31.102Z,23.53
2022-09-16T07:57:01.294Z,23.52
2022-09-16T07:59:39.897Z,23.66
2022-09-16T08:02:09.848Z,23.79
2022-09-16T08:04:50.148Z,23.97
2022-09-16T08:07:19.572Z,24.02
2022-09-16T08:09:51.306Z,23.90
2022-09-16T08:12:27.425Z,23.97
2022-09-16T08:15:00.026Z,23.99
2022-09-16T08:17:34.176Z,23.83
2022-09-16T08:20:06.704Z,24.10
2022-09-16T08:22:38.654Z,24.03
2022-09-16T08:25:06.739Z,24.14
2022-09-16T08:27:38.120Z,24.26
2022-09-16T08:30:11.875Z,24.33
2022-09-16T08:35:26.914Z,24.61
2022-09-16T08:38:04.300Z,24.90
2022-09-16T08:40:36.544Z,24.82
2022-09-16T08:43:28.779Z,24.78
2022-09-16T08:46:30.029Z,24.80
2022-09-16T08:49:17.589Z,25.06
2022-09-16T08:51:46.850Z,25.07
2022-09-16T08:55:04.391Z,25.09
2022-09-16T08:57:48.402Z,24.91
2022-09-16T09:00:20.363Z,24.85
2022-09-16T09:03:25.694Z,24.84
2022-09-16T09:06:02.593Z,24.96
2022-09-16T09:09:03.611Z,25.19
2022-09-16T09:12:06.457Z,25.35
2022-09-16T09:15:17.022Z,25.39
2022-09-16T09:18:31.756Z,25.16
2022-09-16T09:21:24.455Z,25.05
2022-09-16T09:24:35.875Z,25.05
2022-09-16T09:27:31.997Z,25.02
2022-09-16T09:30:23.260Z,25.03
2022-09-16T09:34:01.469Z,24.99
2022-09-16T09:37:08.241Z,25.06
2022-09-16T09:39:59.829Z,25.13
2022-09-16T09:42:48.402Z,25.06
2022-09-16T09:45:33.957Z,25.12
2022-09-16T09:48:16.908Z,25.18
2022-09-16T09:50:53.238Z,25.25
2022-09-16T09:53:55.274Z,25.16
2022-09-16T09:56:37.649Z,25.16
2022-09-16T09:59:35.203Z,25.23
2022-09-16T10:02:26.002Z,25.17
2022-09-16T10:04:56.652Z,25.11
2022-09-16T10:07:31.588Z,24.87
2022-09-16T10:10:17.931Z,24.93
2022-09-16T10:12:47.210Z,25.02
2022-09-16T10:15:31.014Z,24.96
2022-09-16T10:18:12.827Z,25.01
2022-09-16T10:20:47.608Z,25.24
2022-09-16T10:23:26.321Z,25.60
2022-09-16T10:26:09.910Z,26.00
2022-09-16T10:28:42.576Z,26.30
2022-09-16T10:31:11.998Z,26.37
2022-09-16T10:33:48.966Z,26.73
2022-09-16T10:36:29.462Z,26.76
2022-09-16T10:39:04.661Z,26.77
2022-09-16T10:41:49.331Z,27.06
2022-09-16T10:44:37.517Z,27.22
2022-09-16T10:47:28.974Z,27.16
2022-09-16T10:50:09.410Z,27.14
2022-09-16T10:52:48.325Z,27.03
2022-09-16T10:55:32.311Z,26.92
2022-09-16T10:58:10.411Z,26.77
2022-09-16T11:01:21.627Z,26.68
2022-09-16T11:04:02.062Z,26.65
2022-09-16T11:07:09.492Z,26.57
2022-09-16T11:10:16.769Z,26.44
2022-09-16T11:13:26.128Z,26.24
2022-09-16T11:16:29.193Z,26.24
2022-09-16T11:19:39.622Z,26.12
2022-09-16T11:22:29.324Z,26.19
2022-09-16T11:25:41.575Z,26.21
2022-09-16T11:28:45.621Z,26.36
2022-09-16T11:31:20.449Z,26.47
2022-09-16T11:34:47.329Z,26.70
2022-09-16T11:37:25.844Z,26.95
2022-09-16T11:40:16.732Z,27.07
2022-09-16T11:43:24.207Z,27.06
2022-09-16T11:46:44.966Z,27.13
2022-09-16T11:49:55.676Z,27.39
2022-09-16T11:52:51.294Z,27.46
2022-09-16T11:56:17.944Z,27.53
2022-09-16T11:59:09.913Z,27.86
2022-09-16T12:01:58.828Z,28.10
2022-09-16T12:04:51.509Z,28.32
2022-09-16T12:07:36.220Z,28.27
2022-09-16T12:10:29.298Z,28.08
2022-09-16T12:13:08.718Z,27.85
2022-09-16T12:15:58.359Z,27.71
2022-09-16T12:18:38.180Z,27.49
2022-09-16T12:21:28.111Z,27.22
2022-09-16T12:24:22.847Z,27.04
2022-09-16T12:27:28.239Z,26.84
2022-09-16T12:30:06.710Z,26.92
2022-09-16T12:33:03.879Z,26.88
2022-09-16T12:36:00.849Z,26.80
2022-09-16T12:38:29.906Z,26.75
2022-09-16T12:41:27.575Z,26.67
2022-09-16T12:44:34.074Z,26.57
2022-09-16T12:47:27.466Z,26.61
2022-09-16T12:50:16.498Z,26.71
2022-09-16T12:52:59.769Z,26.62
2022-09-16T12:56:24.767Z,26.61
2022-09-16T12:59:10.745Z,26.76
2022-09-16T13:01:59.007Z,27.08
2022-09-16T13:04:50.479Z,27.66
2022-09-16T13:07:38.255Z,27.83
2022-09-16T13:10:54.061Z,27.56
2022-09-16T13:13:43.575Z,27.37
2022-09-16T13:16:18.021Z,27.11
2022-09-16T13:18:53.228Z,27.03
2022-09-16T13:21:48.787Z,26.71
2022-09-16T13:24:27.659Z,26.42
2022-09-16T13:27:06.369Z,26.39
2022-09-16T13:29:48.070Z,26.13
2022-09-16T13:32:53.863Z,26.06
2022-09-16T13:35:52.164Z,25.91
2022-09-16T13:38:33.367Z,25.66
2022-09-16T13:41:06.427Z,25.53
2022-09-16T13:43:55.227Z,25.47
2022-09-16T13:46:31.931Z,25.36
2022-09-16T13:49:08.917Z,25.16
2022-09-16T13:51:45.577Z,25.02
2022-09-16T13:55:11.609Z,24.76
2022-09-16T13:58:25.184Z,24.80
2022-09-16T14:01:55.890Z,24.67
2022-09-16T14:05:07.514Z,24.61
2022-09-16T14:08:01.663Z,24.56
2022-09-16T14:11:12.521Z,24.66
2022-09-16T14:14:05.147Z,24.67
2022-09-16T14:16:44.199Z,24.68
2022-09-16T14:19:31.579Z,24.68
2022-09-16T14:22:25.588Z,24.57
2022-09-16T14:25:06.947Z,24.50
2022-09-16T14:27:50.533Z,24.40
2022-09-16T14:30:20.339Z,24.35
2022-09-16T14:32:54.053Z,24.34
2022-09-16T14:35:31.071Z,24.29
2022-09-16T14:38:22.733Z,24.11
2022-09-16T14:47:51.986Z,23.82
2022-09-16T14:50:37.452Z,23.69
2022-09-16T14:58:50.761Z,23.49
2022-09-16T15:01:32.886Z,23.37
2022-09-16T15:04:19.011Z,23.39
2022-09-16T15:06:54.725Z,23.30
2022-09-16T15:09:42.935Z,23.27
2022-09-16T15:12:35.788Z,23.30
2022-09-16T15:15:34.271Z,23.25
2022-09-16T15:18:31.221Z,23.25
2022-09-16T15:21:38.807Z,23.20
2022-09-16T15:24:43.098Z,23.14
2022-09-16T15:27:25.866Z,23.05
2022-09-16T15:32:57.005Z,22.83
2022-09-16T15:35:39.900Z,22.76
2022-09-16T15:41:17.199Z,22.68
2022-09-16T15:44:04.125Z,22.62
2022-09-16T15:46:37.306Z,22.53
2022-09-16T15:49:15.580Z,22.46
2022-09-16T15:51:49.989Z,22.44
2022-09-16T15:54:53.836Z,22.34
2022-09-16T15:57:44.501Z,22.29
2022-09-16T16:00:17.025Z,22.21
2022-09-16T16:03:20.290Z,22.19
2022-09-16T16:05:56.461Z,22.15
2022-09-16T16:08:42.268Z,22.13
2022-09-16T16:11:17.482Z,22.06
2022-09-16T16:13:47.781Z,21.99
2022-09-16T16:16:19.143Z,21.96
2022-09-16T16:18:52.176Z,21.96
2022-09-16T16:21:24.014Z,21.95
2022-09-16T16:23:52.962Z,21.93
2022-09-16T16:26:32.178Z,21.89
2022-09-16T16:29:06.822Z,21.85
2022-09-16T16:31:38.714Z,21.77
2022-09-16T16:34:08.615Z,21.71
2022-09-16T16:36:37.693Z,21.71
2022-09-16T16:39:06.511Z,21.66
2022-09-16T16:41:37.360Z,21.65
2022-09-16T16:44:12.704Z,21.57
2022-09-16T16:46:52.124Z,21.59
2022-09-16T16:49:37.098Z,21.52
2022-09-16T16:52:07.310Z,21.43
2022-09-16T16:54:38.787Z,21.41
2022-09-16T16:57:21.571Z,21.43
2022-09-16T16:59:52.631Z,21.36
2022-09-16T17:02:24.227Z,21.35
2022-09-16T17:04:58.222Z,21.27
2022-09-16T17:07:36.462Z,21.13
2022-09-16T17:10:05.719Z,21.18
2022-09-16T17:12:34.974Z,21.01
2022-09-16T17:15:13.829Z,20.97
2022-09-16T17:17:48.997Z,20.85
2022-09-16T17:20:24.306Z,21.00
2022-09-16T17:22:53.343Z,20.89
2022-09-16T17:25:22.151Z,20.86
2022-09-16T17:27:54.247Z,20.74
2022-09-16T17:30:24.577Z,20.78
2022-09-16T17:32:53.232Z,20.65
2022-09-16T17:35:22.978Z,20.59
2022-09-16T17:37:54.490Z,20.55
2022-09-16T17:40:31.439Z,20.52
2022-09-16T17:42:59.618Z,20.50
2022-09-16T17:45:29.262Z,20.44
2022-09-16T17:48:08.484Z,20.43
2022-09-16T17:50:40.553Z,20.31
2022-09-16T17:53:12.291Z,20.24
2022-09-16T17:55:43.580Z,20.27
2022-09-16T17:58:16.129Z,20.24
2022-09-16T18:00:47.205Z,20.19
2022-09-16T18:03:16.967Z,20.15
2022-09-16T18:05:51.013Z,20.16
2022-09-16T18:08:21.933Z,20.09
2022-09-16T18:11:00.624Z,20.03
2022-09-16T18:13:32.371Z,20.02
2022-09-16T18:16:18.459Z,20.08
2022-09-16T18:18:55.243Z,20.01
2022-09-16T18:21:32.778Z,19.88
2022-09-16T18:24:14.564Z,19.86
2022-09-16T18:26:49.876Z,19.85
2022-09-16T18:29:20.796Z,19.84
2022-09-16T18:31:54.938Z,19.75
2022-09-16T18:34:24.551Z,19.74
2022-09-16T18:36:56.676Z,19.67
2022-09-16T18:39:25.237Z,19.66
2022-09-16T18:41:57.607Z,19.66
2022-09-16T18:44:26.694Z,19.57
2022-09-16T18:47:00.672Z,19.57
2022-09-16T18:49:40.102Z,19.49
2022-09-16T18:52:14.006Z,19.48
2022-09-16T18:57:36.462Z,19.32
2022-09-16T19:06:24.517Z,19.23
2022-09-16T19:11:55.796Z,19.14
2022-09-16T19:14:28.764Z,19.12
2022-09-16T19:16:59.063Z,19.11
2022-09-16T19:19:35.789Z,19.01
2022-09-16T19:22:10.941Z,18.94
2022-09-16T19:24:52.150Z,18.92
2022-09-16T19:27:21.781Z,18.85
2022-09-16T19:35:40.863Z,18.86
2022-09-16T19:38:20.838Z,18.84
2022-09-16T19:40:51.176Z,18.76
2022-09-16T19:43:20.318Z,18.84
2022-09-16T19:45:54.273Z,18.73
2022-09-16T19:51:08.409Z,18.76
2022-09-16T19:53:38.702Z,18.69
2022-09-16T19:56:12.334Z,18.76
2022-09-16T19:58:41.381Z,18.75
2022-09-16T20:01:26.544Z,18.60
2022-09-16T20:04:12.193Z,18.59
2022-09-16T20:06:43.325Z,18.56
2022-09-16T20:09:21.380Z,18.56
2022-09-16T20:11:56.767Z,18.49
2022-09-16T20:14:34.399Z,18.47
2022-09-16T20:19:50.132Z,18.40
2022-09-16T20:22:23.587Z,18.45
2022-09-16T20:25:18.699Z,18.38
2022-09-16T20:28:07.884Z,18.38
2022-09-16T20:30:40.363Z,18.30
2022-09-16T20:33:24.689Z,18.17
2022-09-16T20:36:13.082Z,18.24
2022-09-16T20:38:44.412Z,18.24
2022-09-16T20:41:19.911Z,18.20
2022-09-16T20:49:37.488Z,18.10
2022-09-16T20:52:17.885Z,18.02
2022-09-16T20:55:06.090Z,18.05
2022-09-16T21:00:47.384Z,17.95
2022-09-16T21:03:19.981Z,17.95
2022-09-16T21:05:48.884Z,17.94
2022-09-16T21:08:18.496Z,17.93
2022-09-16T21:10:47.306Z,17.96
2022-09-16T21:13:21.291Z,17.99
2022-09-16T21:16:06.526Z,18.05
2022-09-16T21:18:41.374Z,18.08
2022-09-16T21:21:19.878Z,18.06
2022-09-16T21:23:49.982Z,18.09
2022-09-16T21:26:35.225Z,18.06
2022-09-16T21:29:19.601Z,18.07
2022-09-16T21:31:53.537Z,18.03
2022-09-16T21:34:35.491Z,18.10
2022-09-16T21:37:07.692Z,18.08
2022-09-16T21:39:37.701Z,18.03
2022-09-16T21:42:16.377Z,18.08
2022-09-16T21:44:46.617Z,18.02
2022-09-16T21:47:14.612Z,18.01
2022-09-16T21:49:43.264Z,17.96
2022-09-16T21:52:12.632Z,17.89
2022-09-16T21:54:51.292Z,17.79
2022-09-16T21:57:20.153Z,17.75
2022-09-16T21:59:51.330Z,17.70
2022-09-16T22:02:20.615Z,17.66
2022-09-16T22:04:49.759Z,17.66
2022-09-16T22:07:28.642Z,17.62
2022-09-16T22:09:58.823Z,17.59
2022-09-16T22:12:32.656Z,17.52
2022-09-16T22:15:02.037Z,17.41
2022-09-16T22:17:30.865Z,17.40
2022-09-16T22:20:00.295Z,17.34
2022-09-16T22:22:31.374Z,17.31
2022-09-16T22:24:59.643Z,17.24
2022-09-16T22:27:28.508Z,17.19
2022-09-16T22:29:57.787Z,17.19
2022-09-16T22:32:32.640Z,17.18
2022-09-16T22:35:02.898Z,17.12
2022-09-16T22:37:33.877Z,17.17
2022-09-16T22:40:03.649Z,17.22
2022-09-16T22:42:33.451Z,17.15
2022-09-16T22:45:10.583Z,17.21
2022-09-16T22:50:25.281Z,17.08
2022-09-16T22:52:56.627Z,17.01
2022-09-16T22:55:28.657Z,16.99
2022-09-16T22:57:57.908Z,16.97
2022-09-16T23:00:26.845Z,16.95
2022-09-16T23:02:56.094Z,16.96
2022-09-16T23:05:23.800Z,17.07
2022-09-16T23:07:54.259Z,17.02
2022-09-16T23:10:31.876Z,17.01
2022-09-16T23:13:01.187Z,16.99
2022-09-16T23:15:30.381Z,16.96
2022-09-16T23:18:03.031Z,16.97
2022-09-16T23:20:33.135Z,16.93
2022-09-16T23:23:01.697Z,16.98
2022-09-16T23:25:48.796Z,16.95
2022-09-16T23:28:17.325Z,16.91
2022-09-16T23:30:50.142Z,16.84
2022-09-16T23:33:21.096Z,16.78
2022-09-16T23:35:51.694Z,16.77
2022-09-16T23:38:25.584Z,16.70
2022-09-16T23:40:58.274Z,16.75
2022-09-16T23:43:34.607Z,16.67
2022-09-16T23:46:21.598Z,16.69
2022-09-16T23:48:54.823Z,16.70
2022-09-16T23:51:32.332Z,16.69
2022-09-16T23:54:01.333Z,16.67
2022-09-16T23:56:29.892Z,16.69
2022-09-16T23:59:08.101Z,16.79
